Time;durP1;ratioP1;P1;durP2;ratioP2;P2;SDS_P1;SDS_P2;PMS_P1;PMS_P2;Temp;Humidity;BMP_temperature;BMP_pressure;BME280_temperature;BME280_humidity;BME280_pressure;Samples;Min_cycle;Max_cycle;Signal;HPM_P1;HPM_P2
2023/05/27 00:00:44;;;;;;;9.00;1.35;;;;;;;12.64;58.68;103115.81;5102607;28;20393;-81
2023/05/27 00:03:11;;;;;;;0.10;0.10;;;;;;;12.61;58.81;103114.03;5102376;28;20272;-81
2023/05/27 00:05:37;;;;;;;0.10;0.10;;;;;;;12.56;59.03;103118.41;5101895;28;20024;-81
2023/05/27 00:08:03;;;;;;;0.03;0.03;;;;;;;12.54;58.98;103124.59;5108529;28;20036;-81
2023/05/27 00:10:29;;;;;;;0.10;0.10;;;;;;;12.49;59.45;103113.94;5123658;28;20487;-80
2023/05/27 00:12:55;;;;;;;0.28;0.28;;;;;;;12.47;58.97;103115.66;5117381;28;20048;-80
2023/05/27 00:15:22;;;;;;;0.10;0.10;;;;;;;12.44;59.13;103120.97;5120501;28;20035;-81
2023/05/27 00:17:49;;;;;;;0.10;0.10;;;;;;;12.41;59.28;103118.28;5095395;28;20151;-81
2023/05/27 00:20:15;;;;;;;0.10;0.10;;;;;;;12.37;58.59;103111.16;5097295;28;20016;-82
2023/05/27 00:22:42;;;;;;;0.10;0.10;;;;;;;12.33;59.67;103106.69;5109121;28;20397;-82
2023/05/27 00:25:08;;;;;;;0.10;0.10;;;;;;;12.25;59.37;103112.81;5113652;28;20035;-80
2023/05/27 00:27:35;;;;;;;0.10;0.10;;;;;;;12.26;58.81;103108.38;5104532;28;20024;-83
2023/05/27 00:30:01;;;;;;;0.10;0.10;;;;;;;12.23;59.59;103101.28;5106216;28;20119;-80
2023/05/27 00:32:27;;;;;;;0.17;0.17;;;;;;;12.17;60.30;103098.56;5104521;28;20024;-81
2023/05/27 00:34:53;;;;;;;0.20;0.20;;;;;;;12.15;60.00;103095.03;5107500;28;20115;-82
2023/05/27 00:37:20;;;;;;;2.17;1.98;;;;;;;12.12;59.35;103087.00;5107175;28;20039;-82
2023/05/27 00:39:46;;;;;;;0.10;0.10;;;;;;;12.09;59.50;103084.34;5121996;28;20039;-82
2023/05/27 00:42:12;;;;;;;0.10;0.10;;;;;;;12.07;59.87;103088.72;5118240;28;20020;-84
2023/05/27 00:44:39;;;;;;;0.00;0.00;;;;;;;12.03;60.21;103086.94;5107805;28;20512;-84
2023/05/27 00:47:06;;;;;;;0.00;0.00;;;;;;;12.02;60.27;103085.16;5105962;28;20028;-83
2023/05/27 00:49:32;;;;;;;0.10;0.10;;;;;;;11.96;59.97;103086.88;5115845;28;20024;-82
2023/05/27 00:51:58;;;;;;;0.10;0.10;;;;;;;11.96;60.44;103080.66;5106881;28;20081;-84
2023/05/27 00:54:25;;;;;;;0.10;0.10;;;;;;;11.95;59.99;103090.34;5104657;28;20047;-83
2023/05/27 00:56:51;;;;;;;0.10;0.10;;;;;;;11.93;59.91;103089.44;5114078;28;20442;-82
2023/05/27 00:59:18;;;;;;;0.45;0.45;;;;;;;11.88;60.55;103088.50;5100435;28;20024;-83
2023/05/27 01:01:44;;;;;;;0.20;0.20;;;;;;;11.88;60.67;103082.31;5111450;28;20016;-81
2023/05/27 01:04:12;;;;;;;0.10;0.10;;;;;;;11.84;59.96;103097.31;5104416;28;20028;-81
2023/05/27 01:07:02;;;;;;;0.20;0.20;;;;;;;11.88;60.17;103092.94;5123923;28;20028;-81
2023/05/27 01:15:05;;;;;;;0.10;0.10;;;;;;;11.75;60.58;103083.94;5105710;27;1207084;-79
2023/05/27 01:17:34;;;;;;;0.10;0.10;;;;;;;11.71;60.33;103087.44;5136545;27;20024;-79
2023/05/27 01:20:02;;;;;;;0.10;0.10;;;;;;;11.68;60.16;103082.09;5136426;27;20039;-79
2023/05/27 01:22:29;;;;;;;0.10;0.10;;;;;;;11.64;60.37;103084.72;5122109;28;20028;-78
2023/05/27 01:24:56;;;;;;;0.30;0.30;;;;;;;11.63;60.15;103088.22;5121004;27;20422;-79
2023/05/27 01:27:24;;;;;;;0.10;0.10;;;;;;;11.60;60.32;103080.25;5119144;28;20036;-77
2023/05/27 01:29:52;;;;;;;0.08;0.08;;;;;;;11.58;60.15;103079.31;5117354;28;20040;-77
2023/05/27 01:32:25;;;;;;;0.10;0.10;;;;;;;11.59;60.30;103074.88;5113234;28;20028;-78
2023/05/27 01:35:01;;;;;;;0.10;0.10;;;;;;;11.61;60.45;103084.69;5115417;28;20020;-79
2023/05/27 01:37:33;;;;;;;0.10;0.10;;;;;;;11.57;60.58;103081.97;5117201;28;20421;-79
2023/05/27 01:40:00;;;;;;;0.20;0.20;;;;;;;11.57;60.35;103081.97;5115345;28;20027;-78
2023/05/27 01:42:26;;;;;;;0.10;0.10;;;;;;;11.53;60.87;103080.16;5112571;28;20108;-77
2023/05/27 01:44:53;;;;;;;0.10;0.10;;;;;;;11.50;60.61;103080.97;5115701;28;20024;-78
2023/05/27 01:47:19;;;;;;;0.08;0.08;;;;;;;11.49;60.72;103079.22;5116074;28;20053;-78
2023/05/27 01:49:46;;;;;;;0.08;0.08;;;;;;;11.46;60.77;103079.19;5116221;28;20100;-78
2023/05/27 01:52:12;;;;;;;0.03;0.03;;;;;;;11.47;60.58;103086.28;5116665;28;20447;-79
2023/05/27 01:54:38;;;;;;;0.10;0.10;;;;;;;11.43;61.13;103088.00;5115327;28;20024;-79
2023/05/27 01:57:06;;;;;;;0.10;0.10;;;;;;;11.39;60.88;103082.63;5115667;28;20073;-78
2023/05/27 01:59:32;;;;;;;0.10;0.10;;;;;;;11.37;61.56;103081.72;5115461;28;20031;-78
2023/05/27 02:01:58;;;;;;;0.10;0.10;;;;;;;11.33;61.14;103084.31;5116387;28;20028;-78
2023/05/27 02:04:24;;;;;;;0.20;0.20;;;;;;;11.35;60.55;103080.81;5116656;28;20020;-78
2023/05/27 02:06:51;;;;;;;0.00;0.00;;;;;;;11.32;61.50;103076.34;5116291;28;20019;-79
2023/05/27 02:09:17;;;;;;;0.10;0.10;;;;;;;11.31;60.51;103085.19;5113908;28;20032;-77
2023/05/27 02:11:43;;;;;;;0.10;0.10;;;;;;;11.26;61.22;103077.16;5115425;28;20111;-78
2023/05/27 02:14:10;;;;;;;0.10;0.10;;;;;;;11.27;61.40;103083.38;5117584;28;20036;-77
2023/05/27 02:16:39;;;;;;;0.10;0.10;;;;;;;11.20;61.82;103077.06;5118988;28;20024;-79
2023/05/27 02:19:05;;;;;;;0.00;0.00;;;;;;;11.17;61.55;103071.75;5121124;28;20023;-77
2023/05/27 02:21:31;;;;;;;0.10;0.10;;;;;;;11.17;61.93;103077.03;5120646;28;20027;-78
2023/05/27 02:23:58;;;;;;;0.22;0.22;;;;;;;11.15;61.88;103084.09;5120407;28;20062;-78
2023/05/27 02:26:24;;;;;;;0.10;0.10;;;;;;;11.14;61.80;103079.63;5107094;28;20486;-78
2023/05/27 02:28:51;;;;;;;0.10;0.10;;;;;;;11.13;61.67;103075.22;5107096;28;20350;-79
2023/05/27 02:31:17;;;;;;;0.10;0.10;;;;;;;11.12;62.41;103079.63;5104489;28;20032;-78
2023/05/27 02:33:43;;;;;;;0.10;0.10;;;;;;;11.14;61.54;103084.94;5111480;28;20030;-79
2023/05/27 02:36:10;;;;;;;0.30;0.30;;;;;;;11.12;61.95;103081.41;5108070;28;20024;-78
2023/05/27 02:38:36;;;;;;;0.10;0.10;;;;;;;11.12;61.93;103078.75;5104371;28;20032;-79
2023/05/27 02:41:03;;;;;;;0.10;0.10;;;;;;;11.11;61.63;103069.00;5103968;28;20039;-79
2023/05/27 02:43:29;;;;;;;0.10;0.10;;;;;;;11.06;62.18;103071.59;5105392;28;20027;-79
2023/05/27 02:45:55;;;;;;;0.10;0.10;;;;;;;11.07;62.63;103072.50;5104589;28;20652;-79
2023/05/27 02:48:21;;;;;;;0.10;0.10;;;;;;;11.03;62.43;103070.66;5104870;28;20031;-78
2023/05/27 02:50:47;;;;;;;0.10;0.10;;;;;;;10.99;62.64;103075.94;5104966;28;20020;-78
2023/05/27 02:53:14;;;;;;;0.95;0.95;;;;;;;10.98;62.42;103079.44;5104325;28;20093;-77
2023/05/27 02:55:40;;;;;;;0.20;0.20;;;;;;;10.95;62.87;103081.16;5104752;28;20062;-78
2023/05/27 02:58:07;;;;;;;0.20;0.20;;;;;;;10.93;62.77;103072.28;5103782;28;20091;-78
2023/05/27 03:00:34;;;;;;;0.10;0.10;;;;;;;10.91;62.43;103068.72;5101148;28;20024;-79
2023/05/27 03:03:00;;;;;;;0.10;0.10;;;;;;;10.90;62.85;103078.44;5100368;28;20027;-79
2023/05/27 03:05:26;;;;;;;0.10;0.10;;;;;;;10.89;61.86;103073.09;5100806;28;20506;-79
2023/05/27 03:07:52;;;;;;;1.00;1.00;;;;;;;10.88;62.06;103085.50;5096894;28;20040;-79
2023/05/27 03:10:18;;;;;;;0.20;0.20;;;;;;;10.88;62.10;103082.84;5103514;28;20032;-79
2023/05/27 03:12:45;;;;;;;0.10;0.10;;;;;;;10.87;62.22;103075.75;5105758;28;20075;-77
2023/05/27 03:15:11;;;;;;;0.10;0.10;;;;;;;10.86;61.98;103081.03;5108157;28;20038;-80
2023/05/27 03:17:37;;;;;;;0.10;0.10;;;;;;;10.81;62.79;103073.00;5105422;28;20032;-78
2023/05/27 03:20:07;;;;;;;0.10;0.10;;;;;;;10.80;62.84;103073.88;5104496;28;20429;-78
2023/05/27 03:22:34;;;;;;;0.10;0.10;;;;;;;10.78;62.20;103072.94;5103280;28;20023;-79
2023/05/27 03:25:00;;;;;;;0.10;0.10;;;;;;;10.75;62.60;103078.22;5102974;28;20027;-79
2023/05/27 03:27:26;;;;;;;0.15;0.15;;;;;;;10.74;62.36;103081.72;5101908;28;20097;-79
2023/05/27 03:29:52;;;;;;;0.10;0.10;;;;;;;10.72;62.32;103073.75;5098705;28;21307;-79
2023/05/27 03:32:18;;;;;;;0.10;0.10;;;;;;;10.72;62.60;103070.22;5100456;28;20032;-80
2023/05/27 03:34:45;;;;;;;0.10;0.10;;;;;;;10.68;62.73;103069.28;5101422;28;20028;-79
2023/05/27 03:37:11;;;;;;;0.10;0.10;;;;;;;10.73;62.72;103071.97;5098235;28;20390;-79
2023/05/27 03:39:37;;;;;;;0.10;0.10;;;;;;;10.72;62.62;103075.53;5098860;28;20051;-79
2023/05/27 03:42:03;;;;;;;1.27;1.20;;;;;;;10.71;62.27;103071.97;5110790;28;20087;-76
2023/05/27 03:44:29;;;;;;;0.10;0.10;;;;;;;10.72;62.37;103064.94;5102361;28;20390;-78
2023/05/27 03:46:55;;;;;;;0.40;0.40;;;;;;;10.68;62.05;103063.97;5104109;28;20506;-79
2023/05/27 03:49:21;;;;;;;0.10;0.10;;;;;;;10.68;62.58;103056.03;5110764;28;20032;-79
2023/05/27 03:51:47;;;;;;;0.10;0.10;;;;;;;10.65;62.34;103056.88;5106413;28;20044;-79
2023/05/27 03:54:14;;;;;;;0.10;0.10;;;;;;;10.63;62.26;103058.59;5104086;28;20032;-79
2023/05/27 03:56:40;;;;;;;0.10;0.10;;;;;;;10.64;62.30;103051.53;5098580;28;20582;-78
2023/05/27 03:59:06;;;;;;;0.10;0.10;;;;;;;10.65;62.64;103056.88;5102203;28;20065;-79
2023/05/27 04:01:33;;;;;;;0.10;0.10;;;;;;;10.66;62.04;103048.03;5099864;28;20020;-79
2023/05/27 04:03:59;;;;;;;0.13;0.13;;;;;;;10.64;61.83;103047.13;5100966;28;20065;-79
2023/05/27 04:06:25;;;;;;;0.10;0.10;;;;;;;10.64;62.19;103048.88;5101606;28;20024;-79
2023/05/27 04:08:51;;;;;;;0.10;0.10;;;;;;;10.63;62.34;103048.00;5097735;28;20024;-79
2023/05/27 04:11:17;;;;;;;0.10;0.10;;;;;;;10.62;62.77;103048.84;5102240;28;20031;-80
2023/05/27 04:13:43;;;;;;;0.20;0.20;;;;;;;10.61;62.58;103044.41;5109207;28;20054;-79
2023/05/27 04:16:10;;;;;;;0.10;0.10;;;;;;;10.62;62.32;103048.84;5106252;28;20035;-79
2023/05/27 04:18:36;;;;;;;0.10;0.10;;;;;;;10.62;63.02;103045.34;5099539;28;20028;-79
2023/05/27 04:21:02;;;;;;;0.10;0.10;;;;;;;10.60;63.26;103042.63;5103251;28;20054;-78
2023/05/27 04:23:28;;;;;;;0.10;0.10;;;;;;;10.61;63.27;103046.19;5107857;28;20024;-78
2023/05/27 04:25:54;;;;;;;0.10;0.10;;;;;;;10.64;63.14;103048.88;5103366;28;20081;-79
2023/05/27 04:28:20;;;;;;;0.10;0.10;;;;;;;10.67;63.37;103046.28;5101667;28;20039;-79
2023/05/27 04:30:48;;;;;;;0.10;0.10;;;;;;;10.70;63.11;103048.97;5101065;28;20028;-79
2023/05/27 04:33:16;;;;;;;0.10;0.10;;;;;;;10.70;63.73;103053.41;5100723;28;20114;-79
2023/05/27 04:35:43;;;;;;;0.25;0.25;;;;;;;10.71;63.79;103044.56;5101691;28;20031;-79
2023/05/27 04:38:10;;;;;;;0.10;0.10;;;;;;;10.75;63.41;103051.69;5101895;28;20115;-78
2023/05/27 04:40:36;;;;;;;0.10;0.10;;;;;;;10.80;63.45;103050.00;5101163;28;20050;-80
2023/05/27 04:43:02;;;;;;;0.57;0.57;;;;;;;10.83;63.18;103050.94;5102019;28;20036;-77
2023/05/27 04:45:29;;;;;;;0.57;0.57;;;;;;;10.84;63.46;103044.78;5099522;28;20024;-79
2023/05/27 04:47:55;;;;;;;0.10;0.10;;;;;;;10.87;64.06;103051.88;5100285;28;20020;-78
2023/05/27 04:50:23;;;;;;;0.10;0.10;;;;;;;10.91;63.14;103059.00;5100358;28;20032;-79
2023/05/27 04:52:49;;;;;;;0.20;0.20;;;;;;;10.93;63.38;103054.63;5099114;28;20152;-78
2023/05/27 04:55:15;;;;;;;0.10;0.10;;;;;;;10.98;63.00;103060.00;5099641;28;20058;-78
2023/05/27 04:57:42;;;;;;;0.20;0.20;;;;;;;11.03;63.38;103046.78;5100259;28;20024;-79
2023/05/27 05:02:47;;;;;;;0.10;0.10;;;;;;;11.12;63.84;103052.22;5116242;27;20423;-80
2023/05/27 05:05:14;;;;;;;0.10;0.10;;;;;;;11.17;62.67;103051.38;5113497;28;20038;-79
2023/05/27 05:07:43;;;;;;;0.47;0.47;;;;;;;11.23;62.92;103047.06;5115701;28;20036;-80
2023/05/27 05:10:10;;;;;;;0.10;0.10;;;;;;;11.24;64.22;103043.50;5112839;28;20057;-80
2023/05/27 05:12:37;;;;;;;0.10;0.10;;;;;;;11.30;62.94;103047.16;5090476;28;20479;-80
2023/05/27 05:15:04;;;;;;;0.08;0.08;;;;;;;11.35;62.87;103030.38;5091307;28;20119;-79
2023/05/27 05:17:30;;;;;;;0.10;0.10;;;;;;;11.38;62.57;103031.31;5087116;28;20497;-79
2023/05/27 05:19:56;;;;;;;0.10;0.10;;;;;;;11.44;63.24;103033.13;5090570;28;20052;-80
2023/05/27 05:22:23;;;;;;;0.10;0.10;;;;;;;11.48;63.09;103021.69;5094740;28;20037;-79
2023/05/27 05:24:50;;;;;;;0.20;0.20;;;;;;;11.55;64.03;103022.63;5095572;28;20212;-80
2023/05/27 05:27:16;;;;;;;0.10;0.10;;;;;;;11.60;63.00;103027.13;5094296;28;20083;-79
2023/05/27 05:29:42;;;;;;;0.10;0.10;;;;;;;11.65;63.48;103025.41;5093178;28;20474;-79
2023/05/27 05:32:11;;;;;;;0.10;0.10;;;;;;;11.75;63.12;103028.16;5090017;28;20029;-79
2023/05/27 05:34:37;;;;;;;0.10;0.10;;;;;;;11.74;63.50;103023.72;5089507;28;20032;-78
2023/05/27 05:37:04;;;;;;;0.10;0.10;;;;;;;11.82;62.62;103025.59;5091895;28;20028;-77
2023/05/27 05:39:31;;;;;;;0.47;0.47;;;;;;;11.88;63.21;103029.19;5092184;28;20024;-78
2023/05/27 05:41:57;;;;;;;0.10;0.10;;;;;;;11.89;62.79;103021.22;5090144;28;20164;-79
2023/05/27 05:44:24;;;;;;;0.10;0.10;;;;;;;11.93;62.16;103020.38;5086013;28;20040;-78
2023/05/27 05:46:50;;;;;;;0.10;0.10;;;;;;;12.00;62.38;103023.13;5090803;28;20031;-78
2023/05/27 05:49:17;;;;;;;0.10;0.10;;;;;;;12.01;63.57;103024.91;5093648;28;20048;-78
2023/05/27 05:51:43;;;;;;;0.10;0.10;;;;;;;12.10;62.91;103019.66;5094161;28;20035;-79
2023/05/27 05:54:10;;;;;;;0.10;0.10;;;;;;;12.15;62.09;103020.63;5092391;28;20028;-79
2023/05/27 05:56:36;;;;;;;0.10;0.10;;;;;;;12.20;61.28;103021.53;5094445;28;20039;-79
2023/05/27 05:59:02;;;;;;;0.10;0.10;;;;;;;12.25;62.36;103013.56;5091676;28;20036;-80
2023/05/27 06:01:28;;;;;;;5.60;0.68;;;;;;;12.29;62.64;103005.66;5094994;28;20085;-78
2023/05/27 06:03:55;;;;;;;1.63;0.73;;;;;;;12.34;62.16;103012.78;5096356;28;20099;-77
2023/05/27 06:06:21;;;;;;;0.10;0.10;;;;;;;12.39;62.07;103013.72;5092627;28;20033;-79
2023/05/27 06:08:48;;;;;;;0.10;0.10;;;;;;;12.42;62.46;103006.66;5087466;28;20040;-77
2023/05/27 06:11:14;;;;;;;0.95;0.95;;;;;;;12.48;61.84;103011.09;5093101;28;20043;-78
2023/05/27 06:13:41;;;;;;;0.10;0.10;;;;;;;12.49;63.63;103002.25;5082308;28;20752;-80
2023/05/27 06:16:07;;;;;;;0.15;0.15;;;;;;;12.58;62.22;102996.09;5081290;28;20109;-80
2023/05/27 06:18:33;;;;;;;0.10;0.10;;;;;;;12.65;62.62;103002.31;5083564;28;20055;-80
2023/05/27 06:20:59;;;;;;;0.10;0.10;;;;;;;12.69;62.09;102991.72;5081814;28;20042;-80
2023/05/27 06:23:25;;;;;;;0.10;0.10;;;;;;;12.77;61.88;102992.66;5082619;28;20373;-79
2023/05/27 06:25:52;;;;;;;0.10;0.10;;;;;;;12.83;61.81;102983.81;5082221;28;20037;-78
2023/05/27 06:28:18;;;;;;;0.95;0.95;;;;;;;12.88;62.05;102976.75;5079555;28;20047;-79
2023/05/27 06:30:44;;;;;;;0.10;0.10;;;;;;;12.94;61.95;102974.09;5081896;28;20032;-80
2023/05/27 06:33:10;;;;;;;0.38;0.38;;;;;;;12.97;62.09;102977.66;5081077;28;20035;-79
2023/05/27 06:35:36;;;;;;;0.10;0.10;;;;;;;13.05;61.66;102975.94;5080344;28;20055;-79
2023/05/27 06:38:02;;;;;;;0.10;0.10;;;;;;;13.13;61.40;102968.84;5083796;28;20086;-80
2023/05/27 06:40:28;;;;;;;0.20;0.20;;;;;;;13.20;61.51;102965.34;5078678;28;20021;-78
2023/05/27 06:42:54;;;;;;;0.03;0.03;;;;;;;13.25;61.57;102958.25;5081644;28;20084;-80
2023/05/27 06:45:21;;;;;;;0.10;0.10;;;;;;;13.27;61.90;102950.25;5083230;28;20095;-79
2023/05/27 06:47:47;;;;;;;0.00;0.00;;;;;;;13.34;61.29;102956.50;5079013;28;20072;-80
2023/05/27 06:50:13;;;;;;;0.20;0.20;;;;;;;13.41;60.84;102956.56;5078332;28;20484;-78
2023/05/27 06:52:39;;;;;;;0.20;0.20;;;;;;;13.48;60.98;102952.13;5079220;28;20175;-80
2023/05/27 06:55:05;;;;;;;0.10;0.10;;;;;;;13.55;61.08;102948.56;5081069;28;20419;-80
2023/05/27 06:57:31;;;;;;;0.00;0.00;;;;;;;13.63;60.78;102953.03;5078387;28;20048;-79
2023/05/27 06:59:57;;;;;;;0.10;0.10;;;;;;;13.68;60.42;102951.25;5077153;28;20036;-79
2023/05/27 07:02:23;;;;;;;0.10;0.10;;;;;;;13.75;60.34;102942.38;5081096;28;20028;-79
2023/05/27 07:04:50;;;;;;;0.10;0.10;;;;;;;13.81;60.15;102936.19;5083031;28;20064;-78
2023/05/27 07:07:16;;;;;;;0.10;0.10;;;;;;;13.85;59.82;102944.16;5081477;28;20044;-78
2023/05/27 07:09:43;;;;;;;0.57;0.57;;;;;;;13.91;60.12;102952.16;5083226;28;20121;-80
2023/05/27 07:12:09;;;;;;;0.10;0.10;;;;;;;14.00;59.93;102945.94;5081179;28;20051;-80
2023/05/27 07:14:35;;;;;;;0.20;0.20;;;;;;;14.08;60.08;102946.81;5079715;28;20043;-79
2023/05/27 07:17:01;;;;;;;0.10;0.10;;;;;;;14.16;60.03;102949.47;5079183;28;20036;-79
2023/05/27 07:19:27;;;;;;;0.10;0.10;;;;;;;14.26;59.67;102947.69;5078640;28;20025;-79
2023/05/27 07:21:53;;;;;;;0.00;0.00;;;;;;;14.37;59.59;102939.66;5076816;28;20021;-79
2023/05/27 07:24:19;;;;;;;0.10;0.10;;;;;;;14.46;59.43;102941.44;5078349;28;20040;-80
2023/05/27 07:26:45;;;;;;;0.10;0.10;;;;;;;14.52;59.49;102931.63;5075253;28;20033;-79
2023/05/27 07:29:11;;;;;;;0.17;0.17;;;;;;;14.61;59.28;102927.16;5074707;28;20507;-79
2023/05/27 07:31:37;;;;;;;1.13;0.70;;;;;;;14.69;58.94;102922.69;5077548;28;20020;-79
2023/05/27 07:34:03;;;;;;;0.30;0.30;;;;;;;14.77;58.91;102930.69;5075783;28;20047;-79
2023/05/27 07:36:30;;;;;;;0.17;0.17;;;;;;;14.81;58.72;102925.31;5075756;28;20071;-79
2023/05/27 07:38:56;;;;;;;0.10;0.10;;;;;;;14.85;58.55;102928.84;5073333;28;20055;-80
2023/05/27 07:41:22;;;;;;;0.77;0.77;;;;;;;14.94;58.41;102918.16;5076112;28;20024;-84
2023/05/27 07:43:48;;;;;;;0.63;0.63;;;;;;;14.98;58.48;102919.03;5067795;28;20073;-80
2023/05/27 07:46:14;;;;;;;0.10;0.10;;;;;;;15.13;58.09;102923.41;5068472;28;20514;-79
2023/05/27 07:48:40;;;;;;;0.10;0.10;;;;;;;15.24;57.97;102920.63;5072414;28;20089;-82
2023/05/27 07:51:06;;;;;;;0.10;0.10;;;;;;;15.32;57.90;102919.69;5072781;28;20032;-80
2023/05/27 07:53:32;;;;;;;0.00;0.00;;;;;;;15.38;57.69;102918.78;5071552;28;20045;-79
2023/05/27 07:55:58;;;;;;;0.20;0.20;;;;;;;15.46;57.24;102914.25;5081334;28;20055;-79
2023/05/27 07:58:24;;;;;;;0.15;0.15;;;;;;;15.49;57.45;102910.69;5079619;28;20032;-79
2023/05/27 08:00:50;;;;;;;0.10;0.10;;;;;;;15.55;57.46;102915.97;5075912;28;20036;-79
2023/05/27 08:03:16;;;;;;;0.10;0.10;;;;;;;15.63;57.26;102903.44;5075138;28;20063;-80
2023/05/27 08:05:42;;;;;;;0.00;0.00;;;;;;;15.74;56.99;102898.00;5078280;28;20051;-79
2023/05/27 08:08:08;;;;;;;0.00;0.00;;;;;;;15.87;56.69;102897.94;5081513;28;20071;-81
2023/05/27 08:10:34;;;;;;;0.10;0.10;;;;;;;15.95;56.63;102904.06;5068937;28;20036;-81
2023/05/27 08:13:01;;;;;;;0.10;0.10;;;;;;;16.00;56.39;102902.28;5076413;28;20399;-80
2023/05/27 08:15:27;;;;;;;0.10;0.10;;;;;;;16.01;56.30;102899.56;5072329;28;20051;-79
2023/05/27 08:17:53;;;;;;;0.10;0.10;;;;;;;16.04;55.46;102895.06;5073147;28;20043;-79
2023/05/27 08:20:19;;;;;;;0.10;0.10;;;;;;;16.11;56.00;102884.31;5072921;28;20102;-79
2023/05/27 08:22:45;;;;;;;0.10;0.10;;;;;;;16.23;56.06;102882.41;5073157;28;20029;-80
2023/05/27 08:25:11;;;;;;;0.10;0.10;;;;;;;16.30;55.75;102878.78;5072485;28;20047;-79
2023/05/27 08:28:01;;;;;;;0.10;0.10;;;;;;;16.44;55.55;102882.16;5072904;28;20025;-79
2023/05/27 08:30:28;;;;;;;0.00;0.00;;;;;;;16.46;54.84;102872.34;5072348;28;20024;-80
2023/05/27 08:32:55;;;;;;;0.10;0.10;;;;;;;16.60;55.21;102871.28;5072665;28;20391;-80
2023/05/27 08:35:21;;;;;;;0.00;0.00;;;;;;;16.70;55.23;102867.56;5073776;28;20484;-80
2023/05/27 08:37:48;;;;;;;0.10;0.10;;;;;;;16.77;54.46;102863.91;5073845;28;20039;-79
2023/05/27 08:40:16;;;;;;;0.00;0.00;;;;;;;16.84;53.80;102862.00;5072994;28;20029;-80
2023/05/27 08:42:42;;;;;;;0.10;0.10;;;;;;;16.90;54.14;102853.03;5073891;28;20429;-79
2023/05/27 08:45:09;;;;;;;0.00;0.00;;;;;;;17.01;54.22;102853.78;5074445;28;20380;-81
2023/05/27 08:47:39;;;;;;;0.10;0.10;;;;;;;17.14;54.13;102844.63;5073908;28;20025;-79
2023/05/27 08:50:07;;;;;;;0.10;0.10;;;;;;;17.23;54.15;102840.03;5074728;28;20491;-80
2023/05/27 08:52:37;;;;;;;0.50;0.50;;;;;;;17.31;53.92;102835.47;5075806;28;20411;-79
2023/05/27 08:55:05;;;;;;;0.55;0.55;;;;;;;17.37;53.54;102838.03;5086988;28;20024;-78
2023/05/27 08:57:32;;;;;;;0.10;0.10;;;;;;;17.45;52.85;102829.88;5088360;28;20024;-79
2023/05/27 08:59:59;;;;;;;0.10;0.10;;;;;;;17.53;53.30;102827.91;5079871;28;20557;-80
2023/05/27 09:02:27;;;;;;;0.10;0.10;;;;;;;17.62;52.50;102821.53;5070904;28;20036;-79
2023/05/27 09:04:53;;;;;;;0.77;0.75;;;;;;;17.74;52.81;102815.03;5068824;28;20029;-80
2023/05/27 09:07:21;;;;;;;0.10;0.10;;;;;;;17.84;52.39;102815.75;5073090;28;20492;-79
2023/05/27 09:10:02;;;;;;;0.10;0.10;;;;;;;18.01;52.23;102813.66;5072919;28;20387;-79
2023/05/27 09:12:28;;;;;;;0.10;0.10;;;;;;;18.06;51.59;102806.41;5073512;28;20024;-79
2023/05/27 09:14:54;;;;;;;0.10;0.10;;;;;;;18.15;51.76;102815.19;5079761;28;20093;-81
2023/05/27 09:17:23;;;;;;;0.10;0.10;;;;;;;18.23;51.53;102810.53;5079082;28;20035;-81
2023/05/27 09:19:51;;;;;;;5.72;1.00;;;;;;;18.34;51.75;102816.56;5077924;28;20102;-81
2023/05/27 09:22:22;;;;;;;0.03;0.03;;;;;;;18.47;51.33;102816.28;5079489;28;20028;-81
2023/05/27 09:24:49;;;;;;;0.20;0.20;;;;;;;18.53;50.75;102810.78;5078075;28;20498;-81
2023/05/27 09:27:15;;;;;;;0.10;0.10;;;;;;;18.62;50.28;102804.34;5077969;28;20056;-81
2023/05/27 09:29:41;;;;;;;0.08;0.08;;;;;;;18.72;50.64;102805.91;5078696;28;20115;-81
2023/05/27 09:32:08;;;;;;;3.53;1.08;;;;;;;18.83;50.59;102797.59;5077425;28;20033;-81
2023/05/27 09:34:43;;;;;;;0.10;0.10;;;;;;;18.96;50.20;102804.47;5078067;28;20078;-81
2023/05/27 09:37:14;;;;;;;14.50;0.75;;;;;;;19.06;50.12;102797.94;5079139;28;20028;-81
2023/05/27 09:39:40;;;;;;;0.10;0.10;;;;;;;19.12;49.65;102790.69;5078906;28;20043;-81
2023/05/27 09:42:07;;;;;;;0.10;0.10;;;;;;;19.19;49.54;102795.84;5077597;28;20387;-80
2023/05/27 09:44:38;;;;;;;0.10;0.10;;;;;;;19.30;49.61;102798.28;5078142;28;20039;-82
2023/05/27 09:47:05;;;;;;;0.10;0.10;;;;;;;19.39;49.51;102791.78;5077952;28;20419;-81
2023/05/27 09:49:34;;;;;;;0.20;0.20;;;;;;;19.47;48.52;102791.56;5082408;28;20108;-81
2023/05/27 09:52:02;;;;;;;0.20;0.20;;;;;;;19.53;49.22;102781.53;5082412;28;20024;-81
2023/05/27 09:54:29;;;;;;;7.95;1.35;;;;;;;19.63;48.85;102778.59;5082018;28;20020;-81
2023/05/27 09:56:57;;;;;;;0.10;0.10;;;;;;;19.73;48.81;102786.34;5082248;28;20028;-81
2023/05/27 09:59:23;;;;;;;0.10;0.10;;;;;;;19.80;48.29;102775.41;5082032;28;20032;-81
2023/05/27 10:01:51;;;;;;;0.10;0.10;;;;;;;19.86;48.30;102768.13;5082038;28;20094;-81
2023/05/27 10:04:18;;;;;;;0.10;0.10;;;;;;;19.93;47.53;102776.00;5081648;28;20032;-81
2023/05/27 10:06:46;;;;;;;0.10;0.10;;;;;;;20.01;48.03;102769.47;5081884;28;20086;-81
2023/05/27 10:09:13;;;;;;;0.10;0.10;;;;;;;20.06;47.86;102766.63;5084230;28;20082;-79
2023/05/27 10:11:40;;;;;;;0.10;0.10;;;;;;;20.12;46.67;102760.19;5086770;28;20024;-81
2023/05/27 10:14:07;;;;;;;0.10;0.10;;;;;;;20.21;47.35;102765.28;5088275;28;20047;-80
2023/05/27 10:16:35;;;;;;;0.88;0.85;;;;;;;20.31;47.11;102763.22;5093766;28;20023;-78
2023/05/27 10:19:01;;;;;;;0.32;0.32;;;;;;;20.40;47.19;102757.56;5076558;28;20112;-81
2023/05/27 10:21:29;;;;;;;0.10;0.10;;;;;;;20.51;47.35;102757.19;5072332;28;20485;-81
2023/05/27 10:24:03;;;;;;;0.10;0.10;;;;;;;20.68;46.96;102752.16;5063988;28;20033;-81
2023/05/27 10:26:39;;;;;;;0.10;0.10;;;;;;;20.82;46.50;102742.78;5061732;28;20051;-81
2023/05/27 10:29:08;;;;;;;0.10;0.10;;;;;;;20.90;46.72;102743.41;5061944;28;20035;-81
2023/05/27 10:31:36;;;;;;;0.10;0.10;;;;;;;20.98;45.49;102738.63;5060803;28;20074;-81
2023/05/27 10:34:05;;;;;;;2.92;1.38;;;;;;;21.07;44.43;102737.47;5062278;28;20080;-81
2023/05/27 10:36:32;;;;;;;0.00;0.00;;;;;;;21.15;45.36;102731.81;5075528;28;20026;-81
2023/05/27 10:39:03;;;;;;;0.10;0.10;;;;;;;21.24;45.99;102731.47;5081713;28;20028;-81
2023/05/27 10:41:38;;;;;;;0.13;0.13;;;;;;;21.31;45.72;102724.94;5081709;28;20032;-81
2023/05/27 10:44:05;;;;;;;0.32;0.32;;;;;;;21.39;45.82;102721.09;5082381;28;20098;-81
2023/05/27 10:46:40;;;;;;;0.10;0.10;;;;;;;21.48;45.53;102712.66;5082194;28;20071;-81
2023/05/27 10:49:35;;;;;;;0.10;0.10;;;;;;;21.56;45.53;102716.00;5082262;28;20020;-81
2023/05/27 10:52:10;;;;;;;0.10;0.10;;;;;;;21.59;45.26;102706.91;5081977;28;20020;-81
2023/05/27 10:54:37;;;;;;;0.30;0.17;;;;;;;21.65;45.20;102699.47;5081920;28;20471;-82
2023/05/27 10:57:03;;;;;;;0.30;0.30;;;;;;;21.74;44.77;102700.94;5082363;28;20104;-80
2023/05/27 10:59:56;;;;;;;12.05;0.80;;;;;;;21.87;44.91;102695.97;5082234;28;20028;-81
2023/05/27 11:02:22;;;;;;;0.10;0.10;;;;;;;21.84;43.78;102693.38;5083215;28;20028;-81
2023/05/27 11:04:50;;;;;;;0.13;0.13;;;;;;;21.91;44.36;102692.19;5083947;28;20064;-80
2023/05/27 11:07:20;;;;;;;0.10;0.10;;;;;;;22.02;44.31;102685.50;5084823;28;20403;-82
2023/05/27 11:09:49;;;;;;;1.63;1.52;;;;;;;22.08;43.29;102685.25;5084700;28;20024;-81
2023/05/27 11:12:16;;;;;;;0.10;0.10;;;;;;;22.13;43.36;102676.06;5083779;28;20044;-80
2023/05/27 11:14:44;;;;;;;0.10;0.10;;;;;;;22.19;42.43;102679.44;5084706;28;20024;-81
2023/05/27 11:17:11;;;;;;;0.10;0.10;;;;;;;22.28;42.86;102673.66;5082334;28;20115;-81
2023/05/27 11:19:40;;;;;;;0.10;0.10;;;;;;;22.42;42.88;102670.44;5078277;28;20033;-81
2023/05/27 11:22:08;;;;;;;0.10;0.10;;;;;;;22.53;42.12;102665.47;5063501;28;20025;-81
2023/05/27 11:24:36;;;;;;;0.70;0.57;;;;;;;22.62;42.08;102656.97;5063968;28;20514;-81
2023/05/27 11:27:12;;;;;;;0.10;0.10;;;;;;;22.74;42.09;102660.09;5064559;28;20033;-81
2023/05/27 11:29:39;;;;;;;0.28;0.28;;;;;;;22.77;41.82;102647.34;5073529;28;20048;-82
2023/05/27 11:32:07;;;;;;;0.10;0.10;;;;;;;22.84;41.38;102647.97;5081660;28;20077;-80